createdAt,value
2018-02-12T00:00:16.596Z,17.27
2018-02-12T00:03:18.505Z,17.25
2018-02-12T00:06:20.407Z,17.24
2018-02-12T00:09:22.400Z,17.23
2018-02-12T00:12:24.291Z,17.23
2018-02-12T00:15:26.193Z,17.19
2018-02-12T00:18:28.185Z,17.20
2018-02-12T00:21:30.091Z,17.20
2018-02-12T00:24:31.987Z,17.16
2018-02-12T00:27:34.044Z,17.16
2018-02-12T00:30:35.976Z,17.15
2018-02-12T00:33:37.907Z,17.14
2018-02-12T00:36:39.893Z,17.14
2018-02-12T00:39:41.887Z,17.11
2018-02-12T00:42:43.783Z,17.09
2018-02-12T00:45:45.674Z,17.10
2018-02-12T00:48:47.573Z,17.08
2018-02-12T00:51:49.467Z,17.09
2018-02-12T00:54:51.463Z,17.06
2018-02-12T00:57:53.350Z,17.04
2018-02-12T01:00:55.242Z,17.04
2018-02-12T01:03:57.131Z,17.04
2018-02-12T01:06:59.034Z,17.01
2018-02-12T01:10:00.922Z,17.00
2018-02-12T01:13:02.817Z,17.01
2018-02-12T01:16:05.243Z,16.99
2018-02-12T01:19:07.138Z,16.98
2018-02-12T01:22:09.139Z,16.97
2018-02-12T01:25:11.043Z,16.95
2018-02-12T01:28:13.171Z,16.92
2018-02-12T01:31:15.132Z,16.92
2018-02-12T01:34:17.038Z,16.93
2018-02-12T01:37:19.035Z,16.93
2018-02-12T01:40:20.918Z,16.90
2018-02-12T01:43:22.852Z,16.88
2018-02-12T01:46:24.815Z,16.86
2018-02-12T01:49:26.706Z,16.86
2018-02-12T01:52:28.616Z,16.84
2018-02-12T01:55:30.615Z,16.84
2018-02-12T01:58:32.611Z,16.83
2018-02-12T02:01:34.514Z,16.82
2018-02-12T02:04:36.502Z,16.82
2018-02-12T02:07:38.399Z,16.82
2018-02-12T02:10:40.294Z,16.81
2018-02-12T02:13:42.178Z,16.80
2018-02-12T02:16:44.078Z,16.78
2018-02-12T02:19:45.970Z,16.76
2018-02-12T02:22:47.879Z,16.74
2018-02-12T02:25:49.866Z,16.74
2018-02-12T02:28:51.769Z,16.76
2018-02-12T02:31:53.663Z,16.74
2018-02-12T02:34:55.559Z,16.72
2018-02-12T02:37:57.551Z,16.73
2018-02-12T02:40:59.463Z,16.70
2018-02-12T02:44:01.355Z,16.70
2018-02-12T02:47:03.238Z,16.69
2018-02-12T02:50:05.143Z,16.69
2018-02-12T02:53:07.046Z,16.67
2018-02-12T02:56:08.922Z,16.66
2018-02-12T02:59:10.836Z,16.66
2018-02-12T03:02:12.722Z,16.66
2018-02-12T03:05:14.723Z,16.65
2018-02-12T03:08:16.610Z,16.66
2018-02-12T03:11:18.847Z,16.62
2018-02-12T03:14:20.814Z,16.62
2018-02-12T03:17:22.706Z,16.63
2018-02-12T03:20:24.602Z,16.61
2018-02-12T03:23:26.506Z,16.59
2018-02-12T03:26:28.402Z,16.60
2018-02-12T03:29:30.393Z,16.60
2018-02-12T03:32:32.299Z,16.59
2018-02-12T03:35:34.287Z,16.58
2018-02-12T03:38:36.200Z,16.57
2018-02-12T03:41:38.091Z,16.55
2018-02-12T03:44:40.087Z,16.56
2018-02-12T03:47:41.979Z,16.55
2018-02-12T03:50:43.864Z,16.54
2018-02-12T03:53:45.775Z,16.54
2018-02-12T03:56:47.667Z,16.52
2018-02-12T03:59:49.563Z,16.52
2018-02-12T04:02:51.447Z,16.49
2018-02-12T04:05:53.342Z,16.49
2018-02-12T04:08:55.231Z,16.50
2018-02-12T04:11:57.138Z,16.49
2018-02-12T04:14:59.051Z,16.45
2018-02-12T04:18:01.031Z,16.47
2018-02-12T04:21:02.927Z,16.47
2018-02-12T04:24:04.824Z,16.46
2018-02-12T04:27:06.943Z,16.44
2018-02-12T04:30:08.818Z,16.45
2018-02-12T04:33:10.715Z,16.44
2018-02-12T04:36:12.632Z,16.44
2018-02-12T04:39:14.518Z,16.43
2018-02-12T04:42:16.406Z,16.44
2018-02-12T04:45:18.404Z,16.42
2018-02-12T04:48:20.311Z,16.42
2018-02-12T04:51:22.311Z,16.41
2018-02-12T04:54:24.302Z,16.42
2018-02-12T04:57:26.290Z,16.45
2018-02-12T05:00:28.195Z,16.47
2018-02-12T05:03:30.093Z,16.46
2018-02-12T05:06:31.984Z,16.50
2018-02-12T05:09:33.874Z,16.54
2018-02-12T05:12:35.760Z,16.57
2018-02-12T05:15:37.691Z,16.59
2018-02-12T05:18:39.668Z,16.62
2018-02-12T05:21:41.658Z,16.66
2018-02-12T05:24:43.558Z,16.71
2018-02-12T05:27:45.447Z,16.75
2018-02-12T05:30:47.359Z,16.81
2018-02-12T05:33:49.251Z,16.87
2018-02-12T05:36:51.149Z,16.93
2018-02-12T05:39:53.040Z,16.99
2018-02-12T05:42:54.940Z,17.04
2018-02-12T05:45:56.835Z,17.09
2018-02-12T05:48:58.731Z,17.15
2018-02-12T05:52:00.637Z,17.20
2018-02-12T05:55:02.516Z,17.24
2018-02-12T05:58:04.393Z,17.28
2018-02-12T06:01:07.351Z,17.33
2018-02-12T06:04:09.248Z,17.37
2018-02-12T06:07:11.155Z,17.41
2018-02-12T06:10:13.044Z,17.45
2018-02-12T06:13:14.922Z,17.49
2018-02-12T06:16:16.798Z,17.53
2018-02-12T06:19:18.663Z,17.56
2018-02-12T06:22:20.542Z,17.60
2018-02-12T06:25:22.427Z,17.63
2018-02-12T06:28:24.546Z,17.67
2018-02-12T06:31:26.422Z,17.70
2018-02-12T06:34:28.303Z,17.74
2018-02-12T06:37:30.188Z,17.77
2018-02-12T06:40:32.111Z,17.81
2018-02-12T06:43:33.994Z,17.84
2018-02-12T06:46:35.894Z,17.87
2018-02-12T06:49:37.780Z,17.90
2018-02-12T06:52:39.663Z,17.92
2018-02-12T06:55:41.529Z,17.95
2018-02-12T06:58:43.407Z,17.99
2018-02-12T07:01:45.287Z,18.01
2018-02-12T07:04:47.178Z,18.04
2018-02-12T07:07:49.046Z,18.07
2018-02-12T07:10:50.934Z,18.08
2018-02-12T07:13:52.800Z,18.09
2018-02-12T07:16:54.786Z,18.11
2018-02-12T07:19:56.747Z,18.11
2018-02-12T07:22:58.663Z,18.13
2018-02-12T07:26:00.498Z,18.14
2018-02-12T07:29:02.380Z,18.16
2018-02-12T07:32:04.280Z,18.19
2018-02-12T07:35:07.255Z,18.20
2018-02-12T07:38:09.163Z,18.22
2018-02-12T07:41:11.046Z,18.23
2018-02-12T07:44:12.940Z,18.25
2018-02-12T07:47:14.847Z,18.25
2018-02-12T07:50:16.847Z,18.26
2018-02-12T07:53:18.740Z,18.25
2018-02-12T07:56:20.727Z,18.27
2018-02-12T07:59:22.631Z,18.27
2018-02-12T08:02:24.514Z,18.28
2018-02-12T08:05:26.411Z,18.28
2018-02-12T08:08:28.306Z,18.28
2018-02-12T08:11:30.206Z,18.29
2018-02-12T08:14:32.111Z,18.31
2018-02-12T08:17:34.011Z,18.32
2018-02-12T08:20:36.017Z,18.33
2018-02-12T08:23:38.011Z,18.34
2018-02-12T08:26:39.908Z,18.35
2018-02-12T08:29:41.787Z,18.34
2018-02-12T08:32:43.689Z,18.37
2018-02-12T08:35:45.679Z,18.38
2018-02-12T08:38:47.578Z,18.41
2018-02-12T08:41:49.482Z,18.42
2018-02-12T08:44:51.375Z,18.42
2018-02-12T08:47:53.271Z,18.43
2018-02-12T08:50:55.162Z,18.46
2018-02-12T08:53:57.040Z,18.53
2018-02-12T08:56:58.918Z,18.59
2018-02-12T09:00:00.796Z,18.64
2018-02-12T09:03:02.687Z,18.67
2018-02-12T09:06:04.572Z,18.69
2018-02-12T09:09:06.466Z,18.69
2018-02-12T09:12:08.331Z,18.72
2018-02-12T09:15:10.235Z,18.76
2018-02-12T09:18:12.087Z,19.15
2018-02-12T09:21:13.971Z,19.03
2018-02-12T09:24:15.846Z,19.01
2018-02-12T09:27:17.719Z,19.07
2018-02-12T09:30:19.609Z,19.04
2018-02-12T09:33:21.482Z,19.05
2018-02-12T09:36:23.403Z,19.06
2018-02-12T09:39:25.246Z,19.07
2018-02-12T09:42:27.118Z,19.09
2018-02-12T09:45:28.991Z,19.10
2018-02-12T09:48:30.870Z,19.17
2018-02-12T09:51:32.787Z,19.16
2018-02-12T09:54:34.676Z,19.17
2018-02-12T09:57:36.618Z,19.17
2018-02-12T10:00:38.490Z,19.19
2018-02-12T10:03:40.372Z,19.20
2018-02-12T10:06:42.234Z,19.21
2018-02-12T10:09:44.107Z,19.22
2018-02-12T10:12:46.005Z,19.21
2018-02-12T10:15:47.903Z,19.25
2018-02-12T10:18:49.770Z,19.28
2018-02-12T10:21:51.652Z,19.32
2018-02-12T10:24:53.522Z,19.33
2018-02-12T10:27:55.404Z,19.32
2018-02-12T10:30:57.291Z,19.34
2018-02-12T10:33:59.169Z,19.32
2018-02-12T10:37:01.038Z,19.33
2018-02-12T10:40:02.914Z,19.38
2018-02-12T10:43:05.611Z,19.41
2018-02-12T10:46:07.464Z,19.44
2018-02-12T10:49:09.351Z,19.49
2018-02-12T10:52:11.226Z,19.48
2018-02-12T10:55:13.231Z,19.50
2018-02-12T10:58:15.111Z,19.39
2018-02-12T11:01:16.996Z,19.29
2018-02-12T11:04:18.870Z,19.34
2018-02-12T11:07:20.787Z,19.31
2018-02-12T11:10:22.619Z,19.31
2018-02-12T11:13:24.514Z,19.31
2018-02-12T11:16:26.391Z,19.32
2018-02-12T11:19:28.282Z,19.22
2018-02-12T11:22:30.167Z,19.25
2018-02-12T11:25:32.034Z,19.34
2018-02-12T11:28:33.931Z,19.38
2018-02-12T11:31:35.837Z,19.28
2018-02-12T11:34:37.729Z,19.33
2018-02-12T11:37:39.647Z,19.49
2018-02-12T11:40:41.508Z,19.48
2018-02-12T11:43:43.378Z,19.60
2018-02-12T11:46:45.247Z,19.56
2018-02-12T11:49:47.115Z,19.54
2018-02-12T11:52:49.018Z,19.55
2018-02-12T11:55:50.886Z,19.59
2018-02-12T11:58:52.794Z,19.61
2018-02-12T12:01:54.747Z,19.67
2018-02-12T12:04:56.621Z,19.56
2018-02-12T12:07:58.538Z,19.40
2018-02-12T12:11:00.531Z,19.43
2018-02-12T12:14:02.442Z,19.53
2018-02-12T12:17:04.435Z,19.57
2018-02-12T12:20:06.337Z,19.59
2018-02-12T12:23:08.276Z,19.66
2018-02-12T12:26:10.123Z,19.64
2018-02-12T12:29:12.105Z,19.61
2018-02-12T12:32:14.019Z,19.51
2018-02-12T12:35:15.922Z,19.42
2018-02-12T12:38:17.838Z,19.44
2018-02-12T12:41:19.724Z,19.43
2018-02-12T12:44:21.627Z,19.43
2018-02-12T12:47:23.967Z,19.40
2018-02-12T12:50:25.955Z,19.38
2018-02-12T12:53:27.947Z,19.42
2018-02-12T12:56:29.947Z,19.38
2018-02-12T12:59:31.831Z,19.35
2018-02-12T13:02:33.740Z,19.40
2018-02-12T13:05:35.636Z,19.37
2018-02-12T13:08:37.526Z,19.39
2018-02-12T13:11:39.438Z,19.39
2018-02-12T13:14:41.330Z,19.42
2018-02-12T13:17:43.478Z,19.39
2018-02-12T13:20:45.394Z,19.40
2018-02-12T13:23:47.387Z,19.42
2018-02-12T13:26:49.276Z,19.36
2018-02-12T13:29:51.166Z,19.34
2018-02-12T13:32:53.075Z,19.33
2018-02-12T13:35:54.972Z,19.32
2018-02-12T13:38:57.023Z,19.29
2018-02-12T13:41:58.963Z,19.31
2018-02-12T13:45:01.203Z,19.26
2018-02-12T13:48:03.150Z,19.20
2018-02-12T13:51:05.070Z,19.22
2018-02-12T13:54:06.955Z,19.02
2018-02-12T13:57:08.886Z,19.06
2018-02-12T14:00:10.875Z,19.15
2018-02-12T14:03:12.783Z,19.23
2018-02-12T14:06:14.771Z,19.24
2018-02-12T14:09:16.671Z,19.32
2018-02-12T14:12:18.685Z,19.35
2018-02-12T14:15:20.958Z,19.39
2018-02-12T14:18:22.835Z,19.43
2018-02-12T14:21:24.759Z,19.46
2018-02-12T14:24:26.642Z,19.49
2018-02-12T14:27:28.657Z,19.49
2018-02-12T14:30:30.591Z,19.49
2018-02-12T14:33:32.483Z,19.49
2018-02-12T14:36:34.359Z,19.52
2018-02-12T14:39:36.247Z,19.50
2018-02-12T14:42:38.188Z,19.54
2018-02-12T14:45:40.108Z,19.58
2018-02-12T14:48:41.984Z,19.64
2018-02-12T14:51:43.897Z,19.72
2018-02-12T14:54:45.799Z,19.62
2018-02-12T14:57:47.702Z,19.61
2018-02-12T15:00:49.852Z,19.61
2018-02-12T15:03:51.823Z,19.63
2018-02-12T15:06:53.726Z,19.65
2018-02-12T15:09:55.627Z,19.58
2018-02-12T15:12:57.518Z,19.43
2018-02-12T15:15:59.423Z,19.48
2018-02-12T15:19:01.327Z,19.51
2018-02-12T15:22:03.236Z,19.49
2018-02-12T15:25:05.147Z,19.49
2018-02-12T15:28:07.131Z,19.48
2018-02-12T15:31:09.063Z,19.47
2018-02-12T15:34:11.051Z,19.46
2018-02-12T15:37:13.041Z,19.38
2018-02-12T15:40:14.924Z,19.33
2018-02-12T15:43:16.988Z,19.31
2018-02-12T15:46:18.916Z,19.29
2018-02-12T15:49:20.811Z,19.30
2018-02-12T15:52:22.695Z,19.28
2018-02-12T15:55:24.603Z,19.28
2018-02-12T15:58:26.499Z,19.27
2018-02-12T16:01:28.412Z,19.27
2018-02-12T16:04:30.300Z,19.41
2018-02-12T16:07:32.297Z,19.39
2018-02-12T16:10:34.263Z,19.47
2018-02-12T16:13:36.199Z,19.47
2018-02-12T16:16:38.102Z,19.65
2018-02-12T16:19:40.011Z,19.61
2018-02-12T16:22:41.910Z,19.55
2018-02-12T16:25:43.811Z,19.59
2018-02-12T16:28:45.711Z,19.64
2018-02-12T16:31:47.706Z,19.62
2018-02-12T16:34:49.608Z,19.64
2018-02-12T16:37:51.645Z,19.61
2018-02-12T16:40:53.606Z,19.62
2018-02-12T16:43:55.533Z,19.62
2018-02-12T16:46:57.521Z,19.64
2018-02-12T16:49:59.415Z,19.66
2018-02-12T16:53:01.470Z,19.76
2018-02-12T16:56:03.424Z,19.77
2018-02-12T16:59:05.494Z,19.83
2018-02-12T17:02:07.412Z,19.80
2018-02-12T17:05:10.238Z,19.74
2018-02-12T17:08:12.135Z,19.72
2018-02-12T17:11:14.118Z,19.73
2018-02-12T17:14:16.027Z,19.74
2018-02-12T17:17:17.932Z,19.77
2018-02-12T17:20:19.931Z,19.77
2018-02-12T17:23:21.835Z,19.79
2018-02-12T17:26:23.825Z,19.79
2018-02-12T17:29:25.726Z,19.81
2018-02-12T17:32:27.623Z,19.81
2018-02-12T17:35:29.611Z,19.80
2018-02-12T17:38:32.562Z,19.80
2018-02-12T17:41:34.563Z,19.82
2018-02-12T17:44:36.561Z,19.82
2018-02-12T17:47:38.541Z,19.85
2018-02-12T17:50:40.535Z,19.84
2018-02-12T17:53:42.443Z,19.84
2018-02-12T17:56:44.326Z,19.85
2018-02-12T17:59:46.219Z,19.86
2018-02-12T18:02:48.115Z,19.86
2018-02-12T18:05:50.027Z,19.91
2018-02-12T18:08:52.024Z,19.86
2018-02-12T18:11:54.019Z,19.79
2018-02-12T18:14:55.922Z,19.76
2018-02-12T18:17:57.807Z,19.76
2018-02-12T18:20:59.803Z,19.74
2018-02-12T18:24:01.702Z,19.78
2018-02-12T18:27:03.638Z,19.79
2018-02-12T18:30:05.832Z,19.80
2018-02-12T18:33:07.727Z,19.83
2018-02-12T18:36:09.622Z,19.85
2018-02-12T18:39:11.619Z,19.83
2018-02-12T18:42:13.534Z,19.82
2018-02-12T18:45:15.527Z,19.79
2018-02-12T18:48:17.407Z,19.78
2018-02-12T18:51:19.314Z,19.76
2018-02-12T18:54:21.215Z,19.76
2018-02-12T18:57:23.119Z,19.75
2018-02-12T19:00:24.996Z,19.74
2018-02-12T19:03:27.251Z,19.73
2018-02-12T19:06:29.215Z,19.72
2018-02-12T19:09:31.107Z,19.63
2018-02-12T19:12:33.011Z,19.57
2018-02-12T19:15:34.912Z,19.54
2018-02-12T19:18:36.803Z,19.51
2018-02-12T19:21:38.711Z,19.48
2018-02-12T19:24:40.947Z,19.44
2018-02-12T19:27:42.914Z,19.40
2018-02-12T19:30:44.822Z,19.42
2018-02-12T19:33:46.826Z,19.39
2018-02-12T19:36:48.798Z,19.40
2018-02-12T19:39:50.719Z,19.39
2018-02-12T19:42:52.627Z,19.41
2018-02-12T19:45:54.546Z,19.38
2018-02-12T19:48:56.426Z,19.33
2018-02-12T19:51:58.303Z,19.35
2018-02-12T19:55:00.184Z,19.35
2018-02-12T19:58:02.078Z,19.33
2018-02-12T20:01:03.970Z,19.34
2018-02-12T20:04:05.846Z,19.31
2018-02-12T20:07:07.723Z,19.31
2018-02-12T20:10:09.607Z,19.30
2018-02-12T20:13:11.487Z,19.26
2018-02-12T20:16:14.242Z,19.27
2018-02-12T20:19:16.111Z,19.26
2018-02-12T20:22:18.097Z,19.24
2018-02-12T20:25:20.157Z,19.23
2018-02-12T20:28:22.041Z,19.20
2018-02-12T20:31:23.934Z,19.18
2018-02-12T20:34:25.826Z,19.14
2018-02-12T20:37:27.717Z,19.15
2018-02-12T20:40:29.623Z,19.19
2018-02-12T20:43:31.507Z,19.13
2018-02-12T20:46:33.378Z,19.10
2018-02-12T20:49:35.282Z,19.09
2018-02-12T20:52:37.210Z,19.05
2018-02-12T20:55:39.096Z,19.05
2018-02-12T20:58:41.075Z,19.02
2018-02-12T21:01:42.955Z,18.91
2018-02-12T21:04:44.878Z,18.80
2018-02-12T21:07:46.791Z,18.77
2018-02-12T21:10:48.690Z,18.71
2018-02-12T21:13:50.684Z,18.69
2018-02-12T21:16:52.629Z,18.66
2018-02-12T21:19:54.488Z,18.67
2018-02-12T21:22:56.471Z,18.62
2018-02-12T21:25:58.450Z,18.59
2018-02-12T21:29:00.359Z,18.54
2018-02-12T21:32:02.354Z,18.52
2018-02-12T21:35:04.261Z,18.48
2018-02-12T21:38:06.148Z,18.46
2018-02-12T21:41:08.131Z,18.44
2018-02-12T21:44:10.043Z,18.41
2018-02-12T21:47:11.950Z,18.38
2018-02-12T21:50:13.897Z,18.36
2018-02-12T21:53:15.864Z,18.34
2018-02-12T21:56:17.759Z,18.31
2018-02-12T21:59:28.885Z,18.28
2018-02-12T22:02:30.779Z,18.28
2018-02-12T22:05:32.672Z,18.25
2018-02-12T22:08:34.689Z,18.22
2018-02-12T22:11:36.571Z,18.18
2018-02-12T22:14:38.455Z,18.17
2018-02-12T22:17:40.403Z,18.15
2018-02-12T22:20:42.292Z,18.13
2018-02-12T22:23:44.175Z,18.09
2018-02-12T22:26:46.051Z,18.06
2018-02-12T22:29:47.918Z,18.05
2018-02-12T22:32:49.872Z,18.04
2018-02-12T22:35:51.770Z,18.01
2018-02-12T22:38:53.660Z,17.98
2018-02-12T22:41:55.535Z,17.98
2018-02-12T22:44:57.462Z,17.95
2018-02-12T22:47:59.278Z,17.93
2018-02-12T22:51:01.159Z,17.91
2018-02-12T22:54:03.033Z,17.90
2018-02-12T22:57:04.910Z,17.88
2018-02-12T23:00:06.809Z,17.87
2018-02-12T23:03:08.687Z,17.84
2018-02-12T23:06:10.618Z,17.82
2018-02-12T23:09:12.449Z,17.80
2018-02-12T23:12:14.324Z,17.79
2018-02-12T23:15:20.376Z,17.77
2018-02-12T23:18:22.259Z,17.77
2018-02-12T23:21:24.131Z,17.76
2018-02-12T23:24:26.010Z,17.74
2018-02-12T23:27:27.895Z,17.72
2018-02-12T23:30:29.767Z,17.69
2018-02-12T23:36:55.654Z,17.68
2018-02-12T23:39:57.543Z,17.66
2018-02-12T23:42:59.427Z,17.64
2018-02-12T23:46:01.320Z,17.63
2018-02-12T23:49:03.198Z,17.61
2018-02-12T23:52:05.071Z,17.58
2018-02-12T23:55:06.945Z,17.56
2018-02-12T23:58:08.830Z,17.55
